Time;durP1;ratioP1;P1;durP2;ratioP2;P2;SDS_P1;SDS_P2;PMS_P1;PMS_P2;Temp;Humidity;BMP_temperature;BMP_pressure;BME280_temperature;BME280_humidity;BME280_pressure;Samples;Min_cycle;Max_cycle;Signal;HPM_P1;HPM_P2
2023/04/11 00:03:38;;;;;;;8.40;1.63;;;9.70;99.90;;;;;;6308070;22;20019;-91
2023/04/11 00:06:09;;;;;;;9.93;2.30;;;9.60;99.90;;;;;;6280875;22;20339;-90
2023/04/11 00:08:38;;;;;;;7.20;2.13;;;9.70;99.90;;;;;;6279344;22;20015;-91
2023/04/11 00:11:16;;;;;;;;;;;;;;;;;;;;;
2023/04/11 00:14:27;;;;;;;7.03;1.90;;;9.70;99.90;;;;;;6278978;22;20094;-91
2023/04/11 00:17:47;;;;;;;;;;;;;;;;;;;;;
2023/04/11 00:21:35;;;;;;;;;;;;;;;;;;;;;
2023/04/11 00:28:02;;;;;;;;;;;;;;;;;;;;;
2023/04/11 00:31:30;;;;;;;8.18;1.90;;;9.60;99.90;;;;;;6183109;23;20092;-92
2023/04/11 00:34:50;;;;;;;10.02;2.45;;;9.60;99.90;;;;;;6183069;23;20013;-89
2023/04/11 00:37:43;;;;;;;6.50;1.75;;;9.50;99.90;;;;;;6167619;23;20021;-90
2023/04/11 00:40:37;;;;;;;9.82;2.03;;;9.50;99.90;;;;;;6158699;23;20017;-92
2023/04/11 00:43:20;;;;;;;6.65;1.70;;;9.40;99.90;;;;;;6115431;23;20025;-90
2023/04/11 00:46:01;;;;;;;8.50;2.00;;;9.40;99.90;;;;;;6230042;22;20344;-91
2023/04/11 00:49:21;;;;;;;;;;;;;;;;;;;;;
2023/04/11 00:56:56;;;;;;;6.88;1.42;;;9.30;99.90;;;;;;6167474;22;20020;-92
2023/04/11 01:00:00;;;;;;;6.95;1.83;;;9.30;99.90;;;;;;6173080;22;20020;-91
2023/04/11 01:02:53;;;;;;;7.57;1.60;;;9.30;99.90;;;;;;6249639;22;20053;-91
2023/04/11 01:30:23;;;;;;;8.43;1.42;;;9.20;99.90;;;;;;6276781;22;20022;-92
2023/04/11 01:41:33;;;;;;;;;;;;;;;;;;;;;
2023/04/11 01:57:10;;;;;;;;;;;;;;;;;;;;;
2023/04/11 02:04:04;;;;;;;5.97;1.10;;;8.80;99.90;;;;;;5898227;24;20117;-93
2023/04/11 02:10:26;;;;;;;6.20;1.47;;;8.80;99.90;;;;;;5863185;23;20009;-91
2023/04/11 02:13:19;;;;;;;9.23;1.52;;;8.80;99.90;;;;;;6009021;23;20380;-92
2023/04/11 02:15:44;;;;;;;6.57;0.90;;;8.80;99.90;;;;;;6008671;23;20019;-90
2023/04/11 02:18:36;;;;;;;8.40;1.30;;;8.70;99.90;;;;;;6025244;23;20019;-90
2023/04/11 02:21:02;;;;;;;6.70;1.00;;;8.70;99.90;;;;;;6003431;23;20207;-90
2023/04/11 02:23:52;;;;;;;7.55;1.20;;;8.70;99.90;;;;;;6012868;23;20083;-90
2023/04/11 02:26:25;;;;;;;4.78;1.25;;;8.70;99.90;;;;;;6152787;23;20049;-89
2023/04/11 02:28:53;;;;;;;;;;;8.70;99.90;;;;;;6152057;23;20029;-89
2023/04/11 02:31:19;;;;;;;5.03;0.90;;;8.60;99.90;;;;;;6152824;23;19951;-90
2023/04/11 02:33:53;;;;;;;5.95;1.05;;;8.50;99.90;;;;;;6170457;23;20017;-91
2023/04/11 02:36:45;;;;;;;4.55;0.95;;;8.60;99.90;;;;;;6215118;23;20008;-90
2023/04/11 02:39:45;;;;;;;5.60;1.13;;;8.50;99.90;;;;;;6215799;23;20029;-91
2023/04/11 02:42:46;;;;;;;6.07;1.13;;;8.50;99.90;;;;;;6215350;23;20024;-91
2023/04/11 02:49:28;;;;;;;5.38;1.02;;;8.50;99.90;;;;;;6200325;22;20050;-89
2023/04/11 02:56:29;;;;;;;4.72;0.80;;;8.40;99.90;;;;;;6082321;23;20018;-91
2023/04/11 03:04:19;;;;;;;;;;;;;;;;;;;;;
2023/04/11 03:07:47;;;;;;;;;;;;;;;;;;;;;
2023/04/11 03:15:47;;;;;;;;;;;;;;;;;;;;;
2023/04/11 04:00:29;;;;;;;8.25;1.17;;;8.40;99.90;;;;;;6002763;23;20027;-91
2023/04/11 04:07:34;;;;;;;7.93;1.45;;;8.40;99.90;;;;;;5924620;24;20386;-92
2023/04/11 04:31:28;;;;;;;8.50;1.90;;;8.30;99.90;;;;;;5555714;22;15054125;-91
2023/04/11 04:39:01;;;;;;;11.07;1.92;;;8.30;99.90;;;;;;5911742;24;20035;-91
2023/04/11 04:42:41;;;;;;;;;;;;;;;;;;;;;
2023/04/11 05:12:40;;;;;;;9.10;1.52;;;8.20;99.90;;;;;;5988832;24;20098;-93
2023/04/11 05:19:32;;;;;;;6.00;1.40;;;8.20;99.90;;;;;;6016592;23;20071;-94
2023/04/11 05:51:34;;;;;;;9.32;1.85;;;8.20;99.90;;;;;;6057760;23;20537;-92
2023/04/11 06:15:12;;;;;;;;;;;;;;;;;;;;;
2023/04/11 06:18:39;;;;;;;7.97;1.50;;;8.20;99.90;;;;;;6159963;23;20017;-91
2023/04/11 06:21:50;;;;;;;;;;;;;;;;;;;;;
2023/04/11 06:26:05;;;;;;;;;;;;;;;;;;;;;
2023/04/11 06:32:47;;;;;;;12.23;2.10;;;8.20;99.90;;;;;;6095162;23;20022;-92
2023/04/11 06:35:55;;;;;;;;;;;;;;;;;;;;;
2023/04/11 06:39:05;;;;;;;11.00;2.00;;;8.20;99.90;;;;;;6183761;23;20021;-90
2023/04/11 06:53:15;;;;;;;11.57;2.10;;;8.20;99.90;;;;;;5994926;23;20026;-93
2023/04/11 06:55:58;;;;;;;;;;;;;;;;;;;;;
2023/04/11 06:59:47;;;;;;;11.35;1.80;;;8.30;99.90;;;;;;6186012;23;20493;-91
2023/04/11 07:05:16;;;;;;;14.25;2.45;;;8.20;99.90;;;;;;6185747;23;20025;-91
2023/04/11 07:16:30;;;;;;;16.70;2.50;;;8.30;99.90;;;;;;5981103;23;20077;-90
2023/04/11 07:19:54;;;;;;;12.27;2.22;;;8.30;99.90;;;;;;6028014;23;20487;-92
2023/04/11 07:22:55;;;;;;;;;;;;;;;;;;;;;
2023/04/11 07:30:41;;;;;;;;;;;;;;;;;;;;;
2023/04/11 07:41:11;;;;;;;17.60;2.58;;;8.40;99.90;;;;;;6037261;23;20028;-92
2023/04/11 07:48:03;;;;;;;;;;;;;;;;;;;;;
2023/04/11 08:08:56;;;;;;;;;;;;;;;;;;;;;
2023/04/11 08:16:01;;;;;;;;;;;;;;;;;;;;;
2023/04/11 08:19:17;;;;;;;14.18;2.28;;;8.60;99.90;;;;;;5979636;23;20022;-94
2023/04/11 08:23:15;;;;;;;;;;;;;;;;;;;;;
2023/04/11 08:32:05;;;;;;;;;;;;;;;;;;;;;
2023/04/11 08:43:13;;;;;;;;;;;;;;;;;;;;;
2023/04/11 08:47:23;;;;;;;10.15;1.73;;;9.20;99.90;;;;;;5932176;24;20102;-94
2023/04/11 09:00:01;;;;;;;;;;;;;;;;;;;;;
2023/04/11 09:03:20;;;;;;;10.40;1.50;;;9.10;99.90;;;;;;6079804;23;20046;-93
2023/04/11 09:09:38;;;;;;;8.95;1.58;;;9.00;99.90;;;;;;6091500;23;20028;-93
2023/04/11 09:13:21;;;;;;;;;;;;;;;;;;;;;
2023/04/11 09:19:37;;;;;;;13.25;1.98;;;8.90;99.90;;;;;;6154999;23;20027;-92
2023/04/11 09:22:33;;;;;;;12.63;2.10;;;9.00;99.90;;;;;;6172794;23;20012;-95
2023/04/11 09:25:27;;;;;;;8.65;1.77;;;9.10;99.90;;;;;;6218194;23;20442;-94
2023/04/11 09:28:30;;;;;;;7.33;1.30;;;9.10;99.90;;;;;;6191555;23;20099;-92
2023/04/11 09:31:20;;;;;;;9.52;1.38;;;9.20;99.90;;;;;;6216919;23;20362;-94
2023/04/11 09:34:32;;;;;;;;;;;;;;;;;;;;;
2023/04/11 09:37:41;;;;;;;8.38;1.63;;;9.20;99.90;;;;;;6179966;23;20068;-93
2023/04/11 09:43:22;;;;;;;12.50;1.90;;;9.20;99.90;;;;;;6182007;23;20021;-95
2023/04/11 09:45:52;;;;;;;11.57;1.63;;;9.10;99.90;;;;;;6191076;23;20056;-95
2023/04/11 09:48:21;;;;;;;9.65;1.85;;;9.10;99.90;;;;;;6217946;23;20306;-93
2023/04/11 09:52:04;;;;;;;;;;;;;;;;;;;;;
2023/04/11 09:55:33;;;;;;;9.98;2.42;;;9.00;99.90;;;;;;6050125;23;20073;-93
2023/04/11 10:02:00;;;;;;;12.32;2.10;;;9.00;99.90;;;;;;6159063;23;20051;-92
2023/04/11 10:04:39;;;;;;;;;;;;;;;;;;;;;
2023/04/11 10:07:33;;;;;;;;;;;;;;;;;;;;;
2023/04/11 10:10:26;;;;;;;15.40;2.03;;;9.00;99.90;;;;;;6187515;23;20017;-94
2023/04/11 10:12:55;;;;;;;12.85;2.10;;;9.10;99.90;;;;;;6160199;23;20023;-94
2023/04/11 10:15:21;;;;;;;14.65;2.60;;;9.10;99.90;;;;;;6187595;23;20084;-94
2023/04/11 10:18:06;;;;;;;13.48;1.77;;;9.10;99.90;;;;;;6161179;23;20013;-93
2023/04/11 10:20:48;;;;;;;15.63;2.42;;;9.20;99.90;;;;;;6187049;23;20031;-94
2023/04/11 10:23:18;;;;;;;12.25;2.00;;;9.40;99.90;;;;;;6161501;23;20013;-94
2023/04/11 10:29:12;;;;;;;12.93;1.95;;;9.60;99.90;;;;;;6161192;23;20453;-95
2023/04/11 10:32:11;;;;;;;12.63;2.10;;;9.70;99.90;;;;;;6161620;23;20071;-93
2023/04/11 10:35:10;;;;;;;;;;;;;;;;;;;;;
2023/04/11 10:38:08;;;;;;;15.23;2.45;;;10.10;99.70;;;;;;6151093;23;20021;-96
2023/04/11 10:40:34;;;;;;;8.77;1.80;;;10.10;99.90;;;;;;6158501;23;20013;-92
2023/04/11 10:43:23;;;;;;;8.15;1.88;;;10.10;99.60;;;;;;6160459;23;20353;-93
2023/04/11 10:46:27;;;;;;;11.25;2.30;;;10.10;98.70;;;;;;6160715;23;20486;-93
2023/04/11 10:48:57;;;;;;;12.75;2.90;;;10.10;98.30;;;;;;6159387;23;20017;-94
2023/04/11 10:51:25;;;;;;;10.60;2.70;;;10.10;98.60;;;;;;6160964;23;20020;-93
2023/04/11 10:53:51;;;;;;;9.77;1.90;;;10.10;98.80;;;;;;6159983;23;20367;-92
2023/04/11 10:56:39;;;;;;;12.07;2.08;;;10.20;98.60;;;;;;6186966;23;20148;-94
2023/04/11 10:59:09;;;;;;;8.93;2.00;;;10.20;98.00;;;;;;6191556;23;20021;-92
2023/04/11 11:01:46;;;;;;;;;;;;;;;;;;;;;
2023/04/11 11:04:45;;;;;;;11.00;1.92;;;10.40;97.70;;;;;;6179957;23;20023;-92
2023/04/11 11:07:13;;;;;;;15.00;2.50;;;10.50;97.30;;;;;;6217426;23;20073;-92
2023/04/11 11:09:38;;;;;;;12.90;2.55;;;10.50;97.50;;;;;;6189390;23;20099;-92
2023/04/11 11:12:14;;;;;;;12.13;2.15;;;10.60;97.10;;;;;;6190608;23;20016;-94
2023/04/11 11:14:44;;;;;;;11.88;2.45;;;10.70;96.90;;;;;;6216244;23;20075;-92
2023/04/11 11:17:15;;;;;;;10.35;2.30;;;10.60;96.60;;;;;;6189554;23;20016;-94
2023/04/11 11:19:44;;;;;;;9.82;1.73;;;10.60;96.10;;;;;;6189862;23;20337;-91
2023/04/11 11:22:15;;;;;;;10.40;2.83;;;10.60;95.90;;;;;;6189156;23;20570;-92
2023/04/11 11:24:40;;;;;;;12.75;2.75;;;10.60;96.40;;;;;;6189808;23;20059;-93
2023/04/11 11:27:18;;;;;;;17.17;3.95;;;10.50;96.30;;;;;;6216576;23;20024;-95
2023/04/11 11:29:44;;;;;;;15.18;2.42;;;10.50;96.40;;;;;;6215843;23;20013;-94
2023/04/11 11:32:31;;;;;;;12.10;2.83;;;10.50;96.90;;;;;;6216777;23;20396;-93
2023/04/11 11:35:12;;;;;;;10.82;3.17;;;10.50;97.00;;;;;;6190055;23;20028;-92
2023/04/11 11:37:38;;;;;;;13.15;2.70;;;10.50;96.70;;;;;;6189011;23;20013;-93
2023/04/11 11:42:56;;;;;;;12.15;2.50;;;10.50;96.70;;;;;;6207879;23;20020;-94
2023/04/11 11:45:22;;;;;;;10.57;2.05;;;10.40;96.70;;;;;;6189280;23;20507;-91
2023/04/11 11:47:51;;;;;;;11.93;2.28;;;10.50;96.60;;;;;;6189482;23;20017;-93
2023/04/11 11:50:25;;;;;;;13.30;3.03;;;10.50;96.70;;;;;;6188959;23;20028;-94
2023/04/11 11:52:51;;;;;;;13.60;2.10;;;10.50;96.70;;;;;;6216276;23;20017;-95
2023/04/11 11:55:17;;;;;;;12.25;3.15;;;10.60;96.70;;;;;;6190014;23;20393;-94
2023/04/11 11:57:47;;;;;;;12.43;2.58;;;10.70;96.60;;;;;;6189152;23;20017;-94
2023/04/11 12:00:13;;;;;;;13.23;2.75;;;10.70;96.20;;;;;;6216320;23;20051;-92
2023/04/11 12:02:41;;;;;;;14.70;2.90;;;10.70;95.70;;;;;;6189419;23;20043;-91
2023/04/11 12:05:12;;;;;;;15.25;2.83;;;10.70;95.50;;;;;;6215589;23;20013;-92
2023/04/11 12:07:39;;;;;;;14.63;2.63;;;10.70;95.30;;;;;;6189165;23;20104;-93
2023/04/11 12:10:07;;;;;;;11.18;2.65;;;10.70;95.00;;;;;;6189378;23;20013;-92
2023/04/11 12:12:41;;;;;;;11.18;1.92;;;10.80;94.90;;;;;;6190539;23;20329;-93
2023/04/11 12:15:11;;;;;;;10.13;1.80;;;10.80;94.80;;;;;;6189307;23;20016;-94
2023/04/11 12:17:37;;;;;;;13.30;2.55;;;10.90;94.90;;;;;;6164703;23;20051;-91
2023/04/11 12:20:07;;;;;;;13.48;2.03;;;11.00;94.80;;;;;;6188591;23;20017;-92
2023/04/11 12:22:36;;;;;;;10.98;1.70;;;11.00;94.60;;;;;;6188989;23;20345;-93
2023/04/11 12:25:05;;;;;;;10.43;1.90;;;11.00;94.50;;;;;;6215981;23;20028;-93
2023/04/11 12:27:33;;;;;;;11.43;2.08;;;11.00;94.30;;;;;;6188278;23;20019;-94
2023/04/11 12:30:00;;;;;;;9.30;1.80;;;11.10;94.70;;;;;;6215979;23;20441;-93
2023/04/11 12:32:26;;;;;;;11.48;2.42;;;11.20;94.10;;;;;;6188733;23;20338;-93
2023/04/11 12:34:53;;;;;;;12.93;2.10;;;11.20;94.00;;;;;;6189995;23;20056;-91
2023/04/11 12:37:19;;;;;;;14.07;2.08;;;11.20;94.00;;;;;;6191598;23;20055;-93
2023/04/11 12:39:45;;;;;;;13.90;2.28;;;11.30;93.90;;;;;;6190301;23;20024;-93
2023/04/11 12:42:11;;;;;;;12.45;2.20;;;11.30;93.40;;;;;;6191236;23;20017;-91
2023/04/11 12:44:37;;;;;;;10.13;1.73;;;11.30;93.50;;;;;;6190780;23;20056;-93
2023/04/11 12:47:03;;;;;;;10.85;2.08;;;11.30;93.70;;;;;;6216958;23;20017;-92
2023/04/11 12:49:28;;;;;;;11.70;2.00;;;11.40;93.50;;;;;;6217643;23;20087;-94
2023/04/11 12:51:54;;;;;;;10.70;1.58;;;11.40;93.40;;;;;;6191173;23;20503;-91
2023/04/11 12:54:20;;;;;;;11.57;1.90;;;11.40;93.30;;;;;;6190117;23;20017;-93
2023/04/11 12:56:46;;;;;;;11.93;2.17;;;11.50;93.10;;;;;;6217698;23;20140;-94
2023/04/11 12:59:14;;;;;;;11.43;2.17;;;11.50;93.30;;;;;;6190896;23;20095;-91
2023/04/11 13:01:40;;;;;;;10.98;2.50;;;11.50;93.50;;;;;;6216577;23;20027;-93
2023/04/11 13:04:06;;;;;;;14.90;2.47;;;11.60;93.50;;;;;;6217911;23;20052;-92
2023/04/11 13:06:32;;;;;;;14.77;2.50;;;11.60;93.50;;;;;;6190541;23;20346;-92
2023/04/11 13:08:57;;;;;;;13.60;2.38;;;11.60;93.70;;;;;;6190294;23;20020;-92
2023/04/11 13:11:23;;;;;;;13.60;2.80;;;11.70;93.60;;;;;;6190907;23;20021;-91
2023/04/11 13:13:52;;;;;;;16.00;2.45;;;11.70;93.50;;;;;;6217151;23;20023;-92
2023/04/11 13:16:18;;;;;;;14.38;2.35;;;11.80;93.50;;;;;;6216555;23;20012;-92
2023/04/11 13:18:43;;;;;;;12.85;2.35;;;11.80;93.50;;;;;;6190177;23;20471;-93
2023/04/11 13:21:09;;;;;;;14.82;2.85;;;11.80;93.30;;;;;;6190375;23;20040;-92
2023/04/11 13:23:35;;;;;;;19.35;2.58;;;11.80;93.60;;;;;;6216031;23;20021;-92
2023/04/11 13:26:01;;;;;;;13.93;2.47;;;11.80;93.80;;;;;;6190371;23;20016;-92
2023/04/11 13:28:27;;;;;;;16.48;2.30;;;11.80;93.30;;;;;;6190373;23;20445;-91
2023/04/11 13:30:53;;;;;;;12.93;2.38;;;11.70;93.40;;;;;;6216938;23;20024;-92
2023/04/11 13:33:19;;;;;;;16.38;3.17;;;11.70;93.30;;;;;;6190707;23;20021;-93
2023/04/11 13:35:45;;;;;;;10.07;2.20;;;11.70;93.40;;;;;;6189231;23;20332;-91
2023/04/11 13:38:11;;;;;;;11.27;1.90;;;11.70;93.70;;;;;;6190098;23;20020;-92
2023/04/11 13:40:39;;;;;;;12.52;2.13;;;11.60;94.40;;;;;;6190086;23;20023;-95
2023/04/11 13:43:04;;;;;;;15.40;2.67;;;11.70;94.10;;;;;;6216501;23;20100;-92
2023/04/11 13:45:30;;;;;;;11.70;2.42;;;11.60;93.40;;;;;;6217118;23;20044;-91
2023/04/11 13:47:56;;;;;;;11.65;2.20;;;11.60;93.10;;;;;;6217099;23;20016;-92
2023/04/11 13:50:56;;;;;;;;;;;;;;;;;;;;;
2023/04/11 13:56:29;;;;;;;11.70;1.90;;;11.50;92.70;;;;;;6166530;23;20048;-93
2023/04/11 13:58:55;;;;;;;11.85;2.20;;;11.50;92.70;;;;;;6215948;23;20028;-93
2023/04/11 14:01:20;;;;;;;11.88;2.20;;;11.40;92.80;;;;;;6190653;23;20023;-92
2023/04/11 14:03:46;;;;;;;10.40;1.65;;;11.40;93.10;;;;;;6216151;23;20103;-93
2023/04/11 14:06:12;;;;;;;11.52;2.25;;;11.40;92.60;;;;;;6190413;23;20017;-91
2023/04/11 14:08:38;;;;;;;10.15;2.00;;;11.40;92.60;;;;;;6216534;23;20071;-91
2023/04/11 14:11:04;;;;;;;17.33;2.75;;;11.30;92.30;;;;;;6189875;23;20017;-92
2023/04/11 14:13:30;;;;;;;11.65;2.17;;;11.40;92.70;;;;;;6190347;23;20019;-91
2023/04/11 14:15:56;;;;;;;12.95;2.60;;;11.40;92.70;;;;;;6189603;23;20013;-91
2023/04/11 14:18:21;;;;;;;11.18;2.50;;;11.40;92.90;;;;;;6189245;23;20046;-91
2023/04/11 14:20:47;;;;;;;11.60;2.35;;;11.40;92.80;;;;;;6189770;23;20078;-92
2023/04/11 14:23:15;;;;;;;10.75;1.95;;;11.40;93.20;;;;;;6189929;23;20013;-93
2023/04/11 14:25:41;;;;;;;11.85;1.98;;;11.40;93.00;;;;;;6189009;23;20083;-92
2023/04/11 14:28:07;;;;;;;9.65;2.13;;;11.40;92.90;;;;;;6216497;23;20115;-92
2023/04/11 14:30:35;;;;;;;12.90;3.25;;;11.40;92.50;;;;;;6189600;23;20067;-90
2023/04/11 14:33:01;;;;;;;10.82;2.67;;;11.40;92.50;;;;;;6188763;23;20020;-91
2023/04/11 14:35:26;;;;;;;11.48;2.78;;;11.40;92.40;;;;;;6189804;23;20410;-91
2023/04/11 14:37:52;;;;;;;13.57;3.95;;;11.40;92.00;;;;;;6189381;23;20400;-91
2023/04/11 14:40:18;;;;;;;11.13;2.58;;;11.40;91.90;;;;;;6189173;23;20096;-91
2023/04/11 14:42:44;;;;;;;14.40;3.40;;;11.40;91.50;;;;;;6189496;23;20099;-91
2023/04/11 14:45:09;;;;;;;9.82;2.50;;;11.50;91.80;;;;;;6216471;23;20017;-91
2023/04/11 14:47:36;;;;;;;14.65;3.10;;;11.50;91.60;;;;;;6188364;23;20349;-92
2023/04/11 14:50:01;;;;;;;12.82;3.60;;;11.60;91.80;;;;;;6189578;23;20017;-92
2023/04/11 14:52:27;;;;;;;21.83;7.93;;;11.60;91.60;;;;;;6216098;23;20021;-91
2023/04/11 14:54:52;;;;;;;15.80;5.55;;;11.60;91.60;;;;;;6188458;23;20103;-92
2023/04/11 14:57:21;;;;;;;20.27;7.60;;;11.70;91.20;;;;;;6215672;23;20017;-91
2023/04/11 14:59:47;;;;;;;20.20;7.22;;;11.60;91.20;;;;;;6189288;23;20027;-90
2023/04/11 15:02:13;;;;;;;14.45;4.15;;;11.60;91.30;;;;;;6188983;23;20100;-92
2023/04/11 15:04:39;;;;;;;13.98;3.63;;;11.70;91.50;;;;;;6189284;23;20066;-91
2023/04/11 15:07:04;;;;;;;15.07;4.20;;;11.60;90.90;;;;;;6188398;23;20009;-91
2023/04/11 15:09:30;;;;;;;17.58;4.93;;;11.60;90.60;;;;;;6189361;23;20020;-91
2023/04/11 15:11:56;;;;;;;10.88;2.92;;;11.60;91.30;;;;;;6189034;23;20017;-91
2023/04/11 15:14:28;;;;;;;12.52;3.83;;;11.60;91.20;;;;;;6215108;23;20444;-92
2023/04/11 15:16:55;;;;;;;14.10;4.32;;;11.60;91.60;;;;;;6188953;23;20071;-93
2023/04/11 15:19:20;;;;;;;10.30;2.63;;;11.60;91.40;;;;;;6216235;23;20048;-90
2023/04/11 15:21:46;;;;;;;10.18;3.05;;;11.60;90.60;;;;;;6214551;23;20019;-90
2023/04/11 15:24:12;;;;;;;10.38;3.55;;;11.60;90.40;;;;;;6216083;23;20020;-91
2023/04/11 15:26:42;;;;;;;11.82;3.30;;;11.60;91.10;;;;;;6188727;23;20036;-89
2023/04/11 15:29:13;;;;;;;10.95;2.80;;;11.60;91.70;;;;;;6215013;23;20016;-90
2023/04/11 15:31:39;;;;;;;11.68;2.47;;;11.60;91.00;;;;;;6215508;23;20009;-91
2023/04/11 15:34:05;;;;;;;11.82;2.55;;;11.60;91.10;;;;;;6188952;23;20095;-90
2023/04/11 15:36:30;;;;;;;9.65;2.35;;;11.60;90.80;;;;;;6214804;23;20433;-91
2023/04/11 15:38:56;;;;;;;14.30;5.07;;;11.60;91.10;;;;;;6215615;23;20028;-90
2023/04/11 15:41:22;;;;;;;10.00;2.15;;;11.60;91.30;;;;;;6188747;23;20016;-90
2023/04/11 15:43:48;;;;;;;12.15;2.05;;;11.60;91.20;;;;;;6214520;23;20024;-90
2023/04/11 15:46:13;;;;;;;12.15;2.20;;;11.60;90.80;;;;;;6188925;23;20013;-89
2023/04/11 15:48:39;;;;;;;13.20;2.47;;;11.60;90.50;;;;;;6188485;23;20021;-90
2023/04/11 15:51:09;;;;;;;8.98;2.60;;;11.60;90.90;;;;;;6214196;23;20012;-91
2023/04/11 15:53:35;;;;;;;11.48;2.05;;;11.70;91.10;;;;;;6214870;23;20476;-93
2023/04/11 15:56:05;;;;;;;9.88;1.85;;;11.60;90.90;;;;;;6215786;23;20016;-90
2023/04/11 15:58:31;;;;;;;9.18;1.92;;;11.60;91.20;;;;;;6187925;23;20357;-93
2023/04/11 16:01:00;;;;;;;10.68;2.47;;;11.60;91.30;;;;;;6188768;23;20080;-89
2023/04/11 16:03:30;;;;;;;9.85;2.17;;;11.60;91.90;;;;;;6214722;23;20012;-90
2023/04/11 16:05:57;;;;;;;9.77;2.20;;;11.60;92.10;;;;;;6188368;23;20021;-91
2023/04/11 16:08:25;;;;;;;10.30;2.42;;;11.70;91.90;;;;;;6215357;23;20021;-90
2023/04/11 16:10:50;;;;;;;9.77;2.30;;;11.70;92.00;;;;;;6214099;23;20016;-90
2023/04/11 16:13:16;;;;;;;9.38;2.22;;;11.70;93.00;;;;;;6188599;23;20028;-90
2023/04/11 16:15:42;;;;;;;11.57;2.30;;;11.70;92.70;;;;;;6188269;23;20441;-90
2023/04/11 16:18:07;;;;;;;8.73;2.30;;;11.80;91.90;;;;;;6214396;23;20092;-90
2023/04/11 16:20:33;;;;;;;8.52;2.20;;;11.70;92.10;;;;;;6188174;23;20012;-91
2023/04/11 16:22:59;;;;;;;9.43;1.58;;;11.80;91.80;;;;;;6215497;23;20425;-91
2023/04/11 16:25:25;;;;;;;8.02;2.15;;;11.80;90.80;;;;;;6214538;23;20028;-89
2023/04/11 16:27:50;;;;;;;9.93;2.00;;;11.80;90.70;;;;;;6188605;23;20013;-90
2023/04/11 16:30:16;;;;;;;7.70;1.65;;;11.80;90.80;;;;;;6215362;23;20020;-89
2023/04/11 16:32:42;;;;;;;9.45;1.92;;;11.80;90.80;;;;;;6187528;23;20013;-89
2023/04/11 16:35:08;;;;;;;10.98;2.08;;;11.80;90.10;;;;;;6188398;23;20027;-89
2023/04/11 16:37:34;;;;;;;9.13;1.95;;;11.80;92.00;;;;;;6188575;23;20008;-89
2023/04/11 16:40:00;;;;;;;12.63;1.75;;;11.80;92.60;;;;;;6187635;23;20023;-90
2023/04/11 16:42:25;;;;;;;7.72;1.88;;;11.90;92.20;;;;;;6215422;23;20412;-89
2023/04/11 16:44:51;;;;;;;8.20;1.48;;;11.90;92.50;;;;;;6188152;23;20086;-90
2023/04/11 16:47:19;;;;;;;8.00;1.65;;;11.90;93.10;;;;;;6187828;23;20345;-91
2023/04/11 16:49:44;;;;;;;7.85;1.83;;;12.00;91.90;;;;;;6215088;23;20009;-90
2023/04/11 16:52:10;;;;;;;8.77;1.90;;;12.00;92.70;;;;;;6215333;23;20306;-89
2023/04/11 16:54:36;;;;;;;9.25;1.67;;;12.00;93.80;;;;;;6187377;23;20108;-90
2023/04/11 16:57:02;;;;;;;6.78;1.60;;;12.00;93.20;;;;;;6188367;23;20021;-89
2023/04/11 16:59:29;;;;;;;9.40;1.30;;;12.00;94.10;;;;;;6187352;23;20025;-90
2023/04/11 17:01:55;;;;;;;6.78;1.35;;;12.00;93.20;;;;;;6214965;23;20028;-88
2023/04/11 17:04:20;;;;;;;7.68;1.33;;;12.00;92.10;;;;;;6188086;23;20025;-90
2023/04/11 17:06:46;;;;;;;6.32;1.40;;;11.90;92.00;;;;;;6194143;23;20088;-90
2023/04/11 17:09:12;;;;;;;7.10;1.58;;;12.00;91.80;;;;;;6215519;23;20028;-90
2023/04/11 17:11:38;;;;;;;7.45;1.77;;;11.90;91.70;;;;;;6187969;23;20091;-89
2023/04/11 17:14:04;;;;;;;6.32;1.25;;;12.00;93.70;;;;;;6187216;23;20095;-89
2023/04/11 17:16:30;;;;;;;8.50;1.52;;;12.00;93.50;;;;;;6188457;23;20111;-89
2023/04/11 17:18:55;;;;;;;7.68;1.50;;;12.00;94.70;;;;;;6187767;23;20465;-89
2023/04/11 17:21:21;;;;;;;6.78;1.40;;;12.10;94.80;;;;;;6188690;23;20059;-89
2023/04/11 17:23:47;;;;;;;9.98;1.55;;;12.00;96.00;;;;;;6189873;23;20318;-89
2023/04/11 17:26:12;;;;;;;7.22;1.50;;;12.10;96.00;;;;;;6190166;23;20013;-89
2023/04/11 17:28:39;;;;;;;6.18;1.50;;;12.10;96.70;;;;;;6215666;23;20319;-89
2023/04/11 17:31:17;;;;;;;9.07;1.50;;;12.20;97.70;;;;;;6190104;23;20012;-89
2023/04/11 17:33:42;;;;;;;11.40;1.73;;;12.10;95.90;;;;;;6189586;23;20017;-89
2023/04/11 17:36:11;;;;;;;7.60;1.80;;;12.20;96.50;;;;;;6215973;23;20009;-89
2023/04/11 17:38:37;;;;;;;8.00;1.55;;;12.20;96.70;;;;;;6189515;23;20027;-89
2023/04/11 17:41:04;;;;;;;7.90;1.70;;;12.20;97.10;;;;;;6216421;23;20464;-88
2023/04/11 17:43:30;;;;;;;8.80;1.88;;;12.30;98.00;;;;;;6188982;23;20016;-88
2023/04/11 17:45:56;;;;;;;8.35;1.35;;;12.30;98.20;;;;;;6189377;23;20315;-89
2023/04/11 17:48:21;;;;;;;7.82;1.60;;;12.40;99.30;;;;;;6216763;23;20020;-89
2023/04/11 17:50:50;;;;;;;6.28;1.27;;;12.40;99.90;;;;;;6215442;23;20381;-88
2023/04/11 17:53:17;;;;;;;6.53;1.63;;;12.40;99.90;;;;;;6216642;23;20070;-88
2023/04/11 17:55:47;;;;;;;5.68;1.23;;;12.50;99.90;;;;;;6188962;23;20017;-88
2023/04/11 17:58:13;;;;;;;4.95;1.33;;;12.50;99.90;;;;;;6189640;23;20016;-89
2023/04/11 18:00:39;;;;;;;8.32;1.60;;;12.60;99.90;;;;;;6216147;23;20020;-88
2023/04/11 18:03:05;;;;;;;8.80;1.33;;;12.60;99.90;;;;;;6189364;23;20512;-88
2023/04/11 18:05:31;;;;;;;8.88;1.65;;;12.60;99.90;;;;;;6189614;23;20017;-88
2023/04/11 18:07:58;;;;;;;5.97;1.50;;;12.60;99.90;;;;;;6190066;23;20080;-89
2023/04/11 18:10:27;;;;;;;6.45;1.38;;;12.60;99.90;;;;;;6215656;23;20079;-89
2023/04/11 18:12:55;;;;;;;9.63;1.60;;;12.60;99.90;;;;;;6189651;23;20017;-89
2023/04/11 18:15:21;;;;;;;11.43;1.50;;;12.60;99.90;;;;;;6189393;23;20353;-88
2023/04/11 18:17:47;;;;;;;11.25;1.48;;;12.60;99.90;;;;;;6188447;23;20019;-88
2023/04/11 18:20:14;;;;;;;6.80;1.50;;;12.60;99.90;;;;;;6216299;23;20034;-88
2023/04/11 18:22:45;;;;;;;10.30;1.90;;;12.60;99.90;;;;;;6189189;23;20066;-88
2023/04/11 18:25:11;;;;;;;9.10;1.85;;;12.60;99.90;;;;;;6215261;23;20052;-89
2023/04/11 18:27:38;;;;;;;14.77;3.30;;;12.60;99.90;;;;;;6189073;23;20051;-89
2023/04/11 18:30:09;;;;;;;12.02;2.85;;;12.60;99.90;;;;;;6216143;23;20016;-89
2023/04/11 18:32:35;;;;;;;11.18;2.80;;;12.60;99.90;;;;;;6196018;23;20008;-88
2023/04/11 18:35:06;;;;;;;10.52;2.65;;;12.50;99.90;;;;;;6189207;23;20048;-88
2023/04/11 18:37:42;;;;;;;11.80;2.55;;;12.50;99.90;;;;;;6216103;23;20043;-88
2023/04/11 18:40:12;;;;;;;10.52;2.60;;;12.50;99.90;;;;;;6188408;23;20461;-89
2023/04/11 18:42:43;;;;;;;11.63;2.75;;;12.50;99.90;;;;;;6215664;23;20043;-89
2023/04/11 18:45:10;;;;;;;10.40;2.75;;;12.40;99.90;;;;;;6188734;23;20467;-88
2023/04/11 18:47:36;;;;;;;10.90;2.83;;;12.40;99.90;;;;;;6188985;23;20384;-88
2023/04/11 18:50:03;;;;;;;11.70;3.10;;;12.40;99.90;;;;;;6188921;23;20414;-88
2023/04/11 18:52:29;;;;;;;16.27;3.72;;;12.30;99.90;;;;;;6188248;23;20020;-88
2023/04/11 18:54:56;;;;;;;9.73;2.58;;;12.30;99.90;;;;;;6215570;23;20016;-88
2023/04/11 18:57:23;;;;;;;13.32;3.00;;;12.30;99.90;;;;;;6189218;23;20017;-88
2023/04/11 18:59:49;;;;;;;14.80;2.90;;;12.20;99.90;;;;;;6187596;23;20025;-89
2023/04/11 19:02:16;;;;;;;9.57;2.67;;;12.20;99.90;;;;;;6189068;23;20021;-88
2023/04/11 19:04:45;;;;;;;9.93;2.70;;;12.10;99.90;;;;;;6215809;23;20016;-89
2023/04/11 19:07:11;;;;;;;13.50;2.95;;;12.10;99.90;;;;;;6214774;23;20373;-88
2023/04/11 19:09:37;;;;;;;14.02;2.90;;;12.00;99.90;;;;;;6188562;23;20009;-89
2023/04/11 19:12:03;;;;;;;10.10;2.60;;;12.00;99.90;;;;;;6188980;23;20380;-89
2023/04/11 19:14:28;;;;;;;11.57;2.50;;;11.90;99.90;;;;;;6187806;23;20024;-89
2023/04/11 19:16:55;;;;;;;10.48;2.40;;;11.90;99.90;;;;;;6188701;23;20095;-88
2023/04/11 19:19:21;;;;;;;9.73;2.50;;;11.80;99.90;;;;;;6215987;23;20345;-88
2023/04/11 19:21:47;;;;;;;11.30;2.60;;;11.80;99.90;;;;;;6214675;23;20019;-89
2023/04/11 19:24:13;;;;;;;12.80;2.45;;;11.70;99.90;;;;;;6215715;23;20020;-89
2023/04/11 19:26:39;;;;;;;10.80;2.47;;;11.70;99.90;;;;;;6215576;23;20058;-89
2023/04/11 19:29:06;;;;;;;11.10;2.08;;;11.60;99.90;;;;;;6214260;23;20017;-88
2023/04/11 19:31:32;;;;;;;8.05;2.10;;;11.60;99.90;;;;;;6215131;23;20469;-88
2023/04/11 19:33:59;;;;;;;12.20;2.35;;;11.50;99.90;;;;;;6188843;23;20095;-88
2023/04/11 19:36:25;;;;;;;12.98;2.42;;;11.50;99.90;;;;;;6187983;23;20338;-88
2023/04/11 19:38:51;;;;;;;9.15;2.30;;;11.50;99.90;;;;;;6215443;23;20075;-89
2023/04/11 19:41:18;;;;;;;14.93;2.55;;;11.40;99.90;;;;;;6214604;23;20453;-88
2023/04/11 19:43:44;;;;;;;13.77;2.53;;;11.40;99.90;;;;;;6188327;23;20020;-89
2023/04/11 19:46:11;;;;;;;10.05;2.30;;;11.40;99.90;;;;;;6215665;23;20091;-88
2023/04/11 19:48:39;;;;;;;10.13;1.75;;;11.30;99.90;;;;;;6188034;23;20052;-88
2023/04/11 19:51:05;;;;;;;10.40;1.88;;;11.30;99.90;;;;;;6188658;23;20013;-88
2023/04/11 19:53:33;;;;;;;11.52;2.22;;;11.20;99.90;;;;;;6188657;23;20025;-88
2023/04/11 19:56:00;;;;;;;7.47;1.90;;;11.10;99.90;;;;;;6214599;23;20040;-88
2023/04/11 19:58:26;;;;;;;11.23;2.30;;;11.10;99.90;;;;;;6215598;23;20047;-88